sensor_id;sensor_type;location;lat;lon;timestamp;P1;durP1;ratioP1;P2;durP2;ratioP2
11809;SDS011;5962;41.566;23.734;2024-02-28T00:00:07;10.13;;;4.93;;
11809;SDS011;5962;41.566;23.734;2024-02-28T00:02:37;7.17;;;4.33;;
11809;SDS011;5962;41.566;23.734;2024-02-28T00:05:05;8.73;;;4.47;;
11809;SDS011;5962;41.566;23.734;2024-02-28T00:07:33;8.17;;;4.20;;
11809;SDS011;5962;41.566;23.734;2024-02-28T00:10:02;7.93;;;4.00;;
11809;SDS011;5962;41.566;23.734;2024-02-28T00:12:30;7.07;;;4.90;;
11809;SDS011;5962;41.566;23.734;2024-02-28T00:14:58;6.70;;;5.03;;
11809;SDS011;5962;41.566;23.734;2024-02-28T00:17:27;12.30;;;7.87;;
11809;SDS011;5962;41.566;23.734;2024-02-28T00:19:58;17.07;;;11.50;;
11809;SDS011;5962;41.566;23.734;2024-02-28T00:22:26;18.67;;;12.47;;
11809;SDS011;5962;41.566;23.734;2024-02-28T00:24:54;21.27;;;12.27;;
11809;SDS011;5962;41.566;23.734;2024-02-28T00:27:22;19.23;;;11.97;;
11809;SDS011;5962;41.566;23.734;2024-02-28T00:29:50;20.60;;;11.87;;
11809;SDS011;5962;41.566;23.734;2024-02-28T00:32:18;42.00;;;33.23;;
11809;SDS011;5962;41.566;23.734;2024-02-28T00:34:47;27.60;;;22.73;;
11809;SDS011;5962;41.566;23.734;2024-02-28T00:37:15;26.27;;;17.90;;
11809;SDS011;5962;41.566;23.734;2024-02-28T00:39:44;24.17;;;14.70;;
11809;SDS011;5962;41.566;23.734;2024-02-28T00:42:12;22.33;;;13.33;;
11809;SDS011;5962;41.566;23.734;2024-02-28T00:44:40;21.47;;;14.87;;
11809;SDS011;5962;41.566;23.734;2024-02-28T00:47:09;19.67;;;14.03;;
11809;SDS011;5962;41.566;23.734;2024-02-28T00:49:37;20.73;;;14.17;;
11809;SDS011;5962;41.566;23.734;2024-02-28T00:52:06;23.77;;;14.57;;
11809;SDS011;5962;41.566;23.734;2024-02-28T00:54:34;24.30;;;16.90;;
11809;SDS011;5962;41.566;23.734;2024-02-28T00:57:02;18.70;;;11.60;;
11809;SDS011;5962;41.566;23.734;2024-02-28T00:59:31;17.50;;;10.83;;
11809;SDS011;5962;41.566;23.734;2024-02-28T01:01:59;17.03;;;11.53;;
11809;SDS011;5962;41.566;23.734;2024-02-28T01:04:27;13.67;;;9.70;;
11809;SDS011;5962;41.566;23.734;2024-02-28T01:06:55;17.23;;;9.83;;
11809;SDS011;5962;41.566;23.734;2024-02-28T01:09:24;13.80;;;9.63;;
11809;SDS011;5962;41.566;23.734;2024-02-28T01:11:52;11.93;;;8.00;;
11809;SDS011;5962;41.566;23.734;2024-02-28T01:14:20;14.47;;;8.30;;
11809;SDS011;5962;41.566;23.734;2024-02-28T01:16:48;14.40;;;8.83;;
11809;SDS011;5962;41.566;23.734;2024-02-28T01:19:16;9.07;;;6.57;;
11809;SDS011;5962;41.566;23.734;2024-02-28T01:21:44;8.40;;;5.10;;
11809;SDS011;5962;41.566;23.734;2024-02-28T01:24:12;14.00;;;8.77;;
11809;SDS011;5962;41.566;23.734;2024-02-28T01:26:42;15.13;;;10.63;;
11809;SDS011;5962;41.566;23.734;2024-02-28T01:29:10;12.30;;;8.50;;
11809;SDS011;5962;41.566;23.734;2024-02-28T01:31:38;10.83;;;8.13;;
11809;SDS011;5962;41.566;23.734;2024-02-28T01:34:06;12.00;;;6.67;;
11809;SDS011;5962;41.566;23.734;2024-02-28T01:36:34;10.13;;;6.97;;
11809;SDS011;5962;41.566;23.734;2024-02-28T01:39:02;9.77;;;6.80;;
11809;SDS011;5962;41.566;23.734;2024-02-28T01:41:30;13.33;;;7.27;;
11809;SDS011;5962;41.566;23.734;2024-02-28T01:44:00;13.23;;;6.97;;
11809;SDS011;5962;41.566;23.734;2024-02-28T01:46:28;10.57;;;6.90;;
11809;SDS011;5962;41.566;23.734;2024-02-28T01:48:58;8.93;;;6.70;;
11809;SDS011;5962;41.566;23.734;2024-02-28T01:51:26;10.30;;;7.50;;
11809;SDS011;5962;41.566;23.734;2024-02-28T01:53:55;9.63;;;6.87;;
11809;SDS011;5962;41.566;23.734;2024-02-28T01:56:24;16.17;;;10.30;;
11809;SDS011;5962;41.566;23.734;2024-02-28T01:58:53;19.27;;;11.43;;
11809;SDS011;5962;41.566;23.734;2024-02-28T02:01:23;17.30;;;10.40;;
11809;SDS011;5962;41.566;23.734;2024-02-28T02:03:51;13.67;;;10.07;;
11809;SDS011;5962;41.566;23.734;2024-02-28T02:06:20;14.27;;;8.83;;
11809;SDS011;5962;41.566;23.734;2024-02-28T02:08:48;13.13;;;9.27;;
11809;SDS011;5962;41.566;23.734;2024-02-28T02:11:17;13.63;;;8.43;;
11809;SDS011;5962;41.566;23.734;2024-02-28T02:13:49;13.63;;;9.87;;
11809;SDS011;5962;41.566;23.734;2024-02-28T02:16:18;15.30;;;9.70;;
11809;SDS011;5962;41.566;23.734;2024-02-28T02:18:49;14.90;;;10.30;;
11809;SDS011;5962;41.566;23.734;2024-02-28T02:21:18;12.80;;;9.37;;
11809;SDS011;5962;41.566;23.734;2024-02-28T02:23:49;12.77;;;9.67;;
11809;SDS011;5962;41.566;23.734;2024-02-28T02:26:17;13.43;;;9.73;;
11809;SDS011;5962;41.566;23.734;2024-02-28T02:28:45;10.83;;;7.97;;
11809;SDS011;5962;41.566;23.734;2024-02-28T02:31:13;12.97;;;7.70;;
11809;SDS011;5962;41.566;23.734;2024-02-28T02:33:41;13.03;;;9.60;;
11809;SDS011;5962;41.566;23.734;2024-02-28T02:36:09;14.67;;;10.33;;
11809;SDS011;5962;41.566;23.734;2024-02-28T02:38:37;10.83;;;8.83;;
11809;SDS011;5962;41.566;23.734;2024-02-28T02:41:06;12.73;;;8.90;;
11809;SDS011;5962;41.566;23.734;2024-02-28T02:43:34;11.63;;;8.67;;
11809;SDS011;5962;41.566;23.734;2024-02-28T02:46:03;13.37;;;7.90;;
11809;SDS011;5962;41.566;23.734;2024-02-28T02:48:31;11.37;;;6.20;;
11809;SDS011;5962;41.566;23.734;2024-02-28T02:50:59;9.93;;;6.57;;
11809;SDS011;5962;41.566;23.734;2024-02-28T02:53:27;9.70;;;5.57;;
11809;SDS011;5962;41.566;23.734;2024-02-28T02:55:55;7.83;;;4.80;;
11809;SDS011;5962;41.566;23.734;2024-02-28T02:58:25;7.93;;;5.87;;
11809;SDS011;5962;41.566;23.734;2024-02-28T03:00:53;9.50;;;6.33;;
11809;SDS011;5962;41.566;23.734;2024-02-28T03:03:21;15.70;;;11.30;;
11809;SDS011;5962;41.566;23.734;2024-02-28T03:05:49;13.30;;;9.47;;
11809;SDS011;5962;41.566;23.734;2024-02-28T03:08:17;12.93;;;8.23;;
11809;SDS011;5962;41.566;23.734;2024-02-28T03:10:45;13.83;;;9.37;;
11809;SDS011;5962;41.566;23.734;2024-02-28T03:13:13;16.87;;;11.87;;
11809;SDS011;5962;41.566;23.734;2024-02-28T03:15:43;21.33;;;13.07;;
11809;SDS011;5962;41.566;23.734;2024-02-28T03:18:11;14.37;;;9.10;;
11809;SDS011;5962;41.566;23.734;2024-02-28T03:20:39;23.57;;;9.73;;
11809;SDS011;5962;41.566;23.734;2024-02-28T03:23:07;14.70;;;9.67;;
11809;SDS011;5962;41.566;23.734;2024-02-28T03:25:35;14.90;;;9.37;;
11809;SDS011;5962;41.566;23.734;2024-02-28T03:28:03;21.47;;;8.90;;
11809;SDS011;5962;41.566;23.734;2024-02-28T03:30:31;18.33;;;8.47;;
11809;SDS011;5962;41.566;23.734;2024-02-28T03:33:01;10.40;;;7.70;;
11809;SDS011;5962;41.566;23.734;2024-02-28T03:35:29;12.43;;;8.13;;
11809;SDS011;5962;41.566;23.734;2024-02-28T03:37:57;15.17;;;9.10;;
11809;SDS011;5962;41.566;23.734;2024-02-28T03:40:25;12.03;;;9.07;;
11809;SDS011;5962;41.566;23.734;2024-02-28T03:42:53;13.50;;;8.93;;
11809;SDS011;5962;41.566;23.734;2024-02-28T03:45:22;14.20;;;9.43;;
11809;SDS011;5962;41.566;23.734;2024-02-28T03:47:50;16.77;;;9.77;;
11809;SDS011;5962;41.566;23.734;2024-02-28T03:50:20;17.67;;;10.10;;
11809;SDS011;5962;41.566;23.734;2024-02-28T03:52:48;12.87;;;9.17;;
11809;SDS011;5962;41.566;23.734;2024-02-28T03:55:16;16.37;;;10.47;;
11809;SDS011;5962;41.566;23.734;2024-02-28T03:57:46;14.30;;;8.90;;
11809;SDS011;5962;41.566;23.734;2024-02-28T04:00:15;13.57;;;7.93;;
11809;SDS011;5962;41.566;23.734;2024-02-28T04:02:43;11.10;;;7.10;;
11809;SDS011;5962;41.566;23.734;2024-02-28T04:05:12;12.00;;;7.43;;
11809;SDS011;5962;41.566;23.734;2024-02-28T04:07:41;10.90;;;7.97;;
11809;SDS011;5962;41.566;23.734;2024-02-28T04:10:09;9.60;;;7.87;;
11809;SDS011;5962;41.566;23.734;2024-02-28T04:12:37;10.67;;;7.77;;
11809;SDS011;5962;41.566;23.734;2024-02-28T04:15:06;18.27;;;9.17;;
11809;SDS011;5962;41.566;23.734;2024-02-28T04:17:35;16.73;;;9.80;;
11809;SDS011;5962;41.566;23.734;2024-02-28T04:20:07;11.77;;;8.60;;
11809;SDS011;5962;41.566;23.734;2024-02-28T04:22:36;15.20;;;9.17;;
11809;SDS011;5962;41.566;23.734;2024-02-28T04:25:06;12.20;;;8.20;;
11809;SDS011;5962;41.566;23.734;2024-02-28T04:27:35;11.80;;;8.17;;
11809;SDS011;5962;41.566;23.734;2024-02-28T04:30:03;13.07;;;8.10;;
11809;SDS011;5962;41.566;23.734;2024-02-28T04:32:33;12.40;;;8.63;;
11809;SDS011;5962;41.566;23.734;2024-02-28T04:35:02;14.83;;;9.00;;
11809;SDS011;5962;41.566;23.734;2024-02-28T04:37:30;16.40;;;9.67;;
11809;SDS011;5962;41.566;23.734;2024-02-28T04:39:58;14.97;;;8.57;;
11809;SDS011;5962;41.566;23.734;2024-02-28T04:42:28;11.63;;;8.20;;
11809;SDS011;5962;41.566;23.734;2024-02-28T04:44:55;13.00;;;8.87;;
11809;SDS011;5962;41.566;23.734;2024-02-28T04:47:23;14.33;;;8.93;;
11809;SDS011;5962;41.566;23.734;2024-02-28T04:49:52;14.97;;;9.07;;
11809;SDS011;5962;41.566;23.734;2024-02-28T04:52:20;23.13;;;9.80;;
11809;SDS011;5962;41.566;23.734;2024-02-28T04:54:49;15.63;;;9.30;;
11809;SDS011;5962;41.566;23.734;2024-02-28T04:57:47;22.13;;;11.50;;
11809;SDS011;5962;41.566;23.734;2024-02-28T05:00:39;26.93;;;14.37;;
11809;SDS011;5962;41.566;23.734;2024-02-28T05:03:21;31.80;;;17.93;;
11809;SDS011;5962;41.566;23.734;2024-02-28T05:06:35;23.00;;;15.43;;
11809;SDS011;5962;41.566;23.734;2024-02-28T05:09:16;19.37;;;10.80;;
11809;SDS011;5962;41.566;23.734;2024-02-28T05:12:30;15.93;;;10.53;;
11809;SDS011;5962;41.566;23.734;2024-02-28T05:15:00;15.43;;;10.07;;
11809;SDS011;5962;41.566;23.734;2024-02-28T05:18:00;16.53;;;9.43;;
11809;SDS011;5962;41.566;23.734;2024-02-28T05:21:04;20.17;;;11.13;;
11809;SDS011;5962;41.566;23.734;2024-02-28T05:23:58;17.63;;;10.57;;
11809;SDS011;5962;41.566;23.734;2024-02-28T05:26:35;19.40;;;11.17;;
11809;SDS011;5962;41.566;23.734;2024-02-28T05:29:16;27.97;;;14.23;;
11809;SDS011;5962;41.566;23.734;2024-02-28T05:32:05;17.13;;;11.23;;
11809;SDS011;5962;41.566;23.734;2024-02-28T05:34:50;41.33;;;26.40;;
11809;SDS011;5962;41.566;23.734;2024-02-28T05:37:39;35.73;;;22.27;;
11809;SDS011;5962;41.566;23.734;2024-02-28T05:40:14;46.07;;;27.97;;
11809;SDS011;5962;41.566;23.734;2024-02-28T05:42:49;57.07;;;32.63;;
11809;SDS011;5962;41.566;23.734;2024-02-28T05:45:27;53.43;;;28.37;;
11809;SDS011;5962;41.566;23.734;2024-02-28T05:48:17;50.27;;;30.53;;
11809;SDS011;5962;41.566;23.734;2024-02-28T05:51:07;39.27;;;23.80;;
11809;SDS011;5962;41.566;23.734;2024-02-28T05:54:09;45.50;;;28.20;;
11809;SDS011;5962;41.566;23.734;2024-02-28T05:56:53;51.53;;;28.37;;
11809;SDS011;5962;41.566;23.734;2024-02-28T05:59:34;44.90;;;28.23;;
11809;SDS011;5962;41.566;23.734;2024-02-28T06:02:34;42.73;;;28.40;;
11809;SDS011;5962;41.566;23.734;2024-02-28T06:05:19;38.10;;;24.37;;
11809;SDS011;5962;41.566;23.734;2024-02-28T06:11:16;27.13;;;17.97;;
11809;SDS011;5962;41.566;23.734;2024-02-28T06:13:52;18.70;;;13.03;;
11809;SDS011;5962;41.566;23.734;2024-02-28T06:16:27;22.50;;;14.77;;
11809;SDS011;5962;41.566;23.734;2024-02-28T06:19:20;31.90;;;21.10;;
11809;SDS011;5962;41.566;23.734;2024-02-28T06:22:14;25.50;;;16.07;;
11809;SDS011;5962;41.566;23.734;2024-02-28T06:24:51;22.87;;;13.73;;
11809;SDS011;5962;41.566;23.734;2024-02-28T06:30:23;23.20;;;14.70;;
11809;SDS011;5962;41.566;23.734;2024-02-28T06:32:53;24.70;;;15.63;;
11809;SDS011;5962;41.566;23.734;2024-02-28T06:35:27;20.73;;;13.40;;
11809;SDS011;5962;41.566;23.734;2024-02-28T06:38:17;16.77;;;11.80;;
11809;SDS011;5962;41.566;23.734;2024-02-28T06:41:22;18.23;;;10.50;;
11809;SDS011;5962;41.566;23.734;2024-02-28T06:44:00;14.17;;;9.23;;
11809;SDS011;5962;41.566;23.734;2024-02-28T06:46:33;18.07;;;9.77;;
11809;SDS011;5962;41.566;23.734;2024-02-28T06:49:11;13.70;;;8.60;;
11809;SDS011;5962;41.566;23.734;2024-02-28T06:51:53;11.73;;;8.87;;
11809;SDS011;5962;41.566;23.734;2024-02-28T06:54:55;14.90;;;9.20;;
11809;SDS011;5962;41.566;23.734;2024-02-28T07:04:34;14.03;;;8.93;;
11809;SDS011;5962;41.566;23.734;2024-02-28T07:07:12;18.57;;;10.00;;
11809;SDS011;5962;41.566;23.734;2024-02-28T07:09:48;16.73;;;10.03;;
11809;SDS011;5962;41.566;23.734;2024-02-28T07:12:33;20.27;;;10.00;;
11809;SDS011;5962;41.566;23.734;2024-02-28T07:15:15;40.00;;;19.93;;
11809;SDS011;5962;41.566;23.734;2024-02-28T07:18:00;29.67;;;17.30;;
11809;SDS011;5962;41.566;23.734;2024-02-28T07:20:34;25.83;;;17.40;;
11809;SDS011;5962;41.566;23.734;2024-02-28T07:23:20;17.43;;;8.83;;
